sensor_id;sensor_type;location;lat;lon;timestamp;P1;durP1;ratioP1;P2;durP2;ratioP2
5787;SDS011;2920;48.158;12.254;2022-12-18T00:01:13;33.38;;;14.43;;
5787;SDS011;2920;48.158;12.254;2022-12-18T00:03:40;45.53;;;15.00;;
5787;SDS011;2920;48.158;12.254;2022-12-18T00:06:06;41.40;;;16.60;;
5787;SDS011;2920;48.158;12.254;2022-12-18T00:08:31;38.90;;;14.35;;
5787;SDS011;2920;48.158;12.254;2022-12-18T00:11:03;46.67;;;15.32;;
5787;SDS011;2920;48.158;12.254;2022-12-18T00:13:29;37.83;;;13.38;;
5787;SDS011;2920;48.158;12.254;2022-12-18T00:15:54;41.17;;;14.57;;
5787;SDS011;2920;48.158;12.254;2022-12-18T00:18:19;38.38;;;13.48;;
5787;SDS011;2920;48.158;12.254;2022-12-18T00:20:44;41.63;;;13.55;;
5787;SDS011;2920;48.158;12.254;2022-12-18T00:23:10;40.97;;;14.88;;
5787;SDS011;2920;48.158;12.254;2022-12-18T00:25:35;43.42;;;15.45;;
5787;SDS011;2920;48.158;12.254;2022-12-18T00:28:01;38.42;;;13.70;;
5787;SDS011;2920;48.158;12.254;2022-12-18T00:30:28;34.22;;;12.32;;
5787;SDS011;2920;48.158;12.254;2022-12-18T00:32:53;39.55;;;13.32;;
5787;SDS011;2920;48.158;12.254;2022-12-18T00:35:18;42.15;;;14.05;;
5787;SDS011;2920;48.158;12.254;2022-12-18T00:37:44;43.42;;;15.85;;
5787;SDS011;2920;48.158;12.254;2022-12-18T00:40:09;33.92;;;13.27;;
5787;SDS011;2920;48.158;12.254;2022-12-18T00:42:35;36.92;;;14.68;;
5787;SDS011;2920;48.158;12.254;2022-12-18T00:45:19;40.08;;;14.15;;
5787;SDS011;2920;48.158;12.254;2022-12-18T00:47:44;39.58;;;13.02;;
5787;SDS011;2920;48.158;12.254;2022-12-18T00:50:10;36.42;;;13.15;;
5787;SDS011;2920;48.158;12.254;2022-12-18T00:52:35;34.45;;;13.77;;
5787;SDS011;2920;48.158;12.254;2022-12-18T00:55:00;41.25;;;13.95;;
5787;SDS011;2920;48.158;12.254;2022-12-18T00:57:26;34.25;;;13.85;;
5787;SDS011;2920;48.158;12.254;2022-12-18T00:59:51;41.22;;;15.27;;
5787;SDS011;2920;48.158;12.254;2022-12-18T01:02:16;42.40;;;15.40;;
5787;SDS011;2920;48.158;12.254;2022-12-18T01:04:42;41.42;;;13.73;;
5787;SDS011;2920;48.158;12.254;2022-12-18T01:07:07;32.83;;;13.18;;
5787;SDS011;2920;48.158;12.254;2022-12-18T01:09:32;38.45;;;13.65;;
5787;SDS011;2920;48.158;12.254;2022-12-18T01:11:58;36.60;;;14.25;;
5787;SDS011;2920;48.158;12.254;2022-12-18T01:14:23;39.65;;;14.23;;
5787;SDS011;2920;48.158;12.254;2022-12-18T01:16:48;40.92;;;12.52;;
5787;SDS011;2920;48.158;12.254;2022-12-18T01:19:13;36.75;;;13.18;;
5787;SDS011;2920;48.158;12.254;2022-12-18T01:21:39;41.22;;;16.00;;
5787;SDS011;2920;48.158;12.254;2022-12-18T01:24:04;43.28;;;16.10;;
5787;SDS011;2920;48.158;12.254;2022-12-18T01:26:30;38.47;;;14.23;;
5787;SDS011;2920;48.158;12.254;2022-12-18T01:28:56;49.35;;;15.80;;
5787;SDS011;2920;48.158;12.254;2022-12-18T01:31:23;39.72;;;14.82;;
5787;SDS011;2920;48.158;12.254;2022-12-18T01:33:51;34.03;;;14.13;;
5787;SDS011;2920;48.158;12.254;2022-12-18T01:36:21;44.60;;;15.73;;
5787;SDS011;2920;48.158;12.254;2022-12-18T01:38:49;37.00;;;13.73;;
5787;SDS011;2920;48.158;12.254;2022-12-18T01:41:15;38.85;;;13.90;;
5787;SDS011;2920;48.158;12.254;2022-12-18T01:43:42;45.55;;;15.43;;
5787;SDS011;2920;48.158;12.254;2022-12-18T01:46:11;41.63;;;14.90;;
5787;SDS011;2920;48.158;12.254;2022-12-18T01:48:36;46.70;;;16.58;;
5787;SDS011;2920;48.158;12.254;2022-12-18T01:51:02;41.17;;;13.95;;
5787;SDS011;2920;48.158;12.254;2022-12-18T01:53:27;38.75;;;14.20;;
5787;SDS011;2920;48.158;12.254;2022-12-18T01:55:53;41.17;;;16.33;;
5787;SDS011;2920;48.158;12.254;2022-12-18T01:58:22;35.03;;;13.23;;
5787;SDS011;2920;48.158;12.254;2022-12-18T02:00:55;47.20;;;15.32;;
5787;SDS011;2920;48.158;12.254;2022-12-18T02:03:21;36.67;;;13.73;;
5787;SDS011;2920;48.158;12.254;2022-12-18T02:15:56;36.60;;;13.80;;
5787;SDS011;2920;48.158;12.254;2022-12-18T02:18:28;34.53;;;13.90;;
5787;SDS011;2920;48.158;12.254;2022-12-18T02:23:45;33.97;;;13.25;;
5787;SDS011;2920;48.158;12.254;2022-12-18T02:33:47;35.55;;;13.57;;
5787;SDS011;2920;48.158;12.254;2022-12-18T02:36:14;31.95;;;12.95;;
5787;SDS011;2920;48.158;12.254;2022-12-18T02:38:41;35.05;;;11.82;;
5787;SDS011;2920;48.158;12.254;2022-12-18T02:41:07;32.00;;;11.68;;
5787;SDS011;2920;48.158;12.254;2022-12-18T02:43:33;33.53;;;11.65;;
5787;SDS011;2920;48.158;12.254;2022-12-18T02:45:59;34.42;;;12.55;;
5787;SDS011;2920;48.158;12.254;2022-12-18T02:48:27;38.33;;;12.13;;
5787;SDS011;2920;48.158;12.254;2022-12-18T02:50:59;34.50;;;12.13;;
5787;SDS011;2920;48.158;12.254;2022-12-18T02:53:36;33.80;;;12.68;;
5787;SDS011;2920;48.158;12.254;2022-12-18T02:59:04;27.47;;;10.40;;
5787;SDS011;2920;48.158;12.254;2022-12-18T03:04:14;27.48;;;10.98;;
5787;SDS011;2920;48.158;12.254;2022-12-18T03:06:43;33.17;;;11.40;;
5787;SDS011;2920;48.158;12.254;2022-12-18T03:09:14;36.00;;;12.43;;
5787;SDS011;2920;48.158;12.254;2022-12-18T03:11:47;33.35;;;12.75;;
5787;SDS011;2920;48.158;12.254;2022-12-18T03:14:41;23.88;;;10.30;;
5787;SDS011;2920;48.158;12.254;2022-12-18T03:17:09;34.50;;;12.10;;
5787;SDS011;2920;48.158;12.254;2022-12-18T03:22:04;33.47;;;11.30;;
5787;SDS011;2920;48.158;12.254;2022-12-18T03:24:30;35.75;;;11.15;;
5787;SDS011;2920;48.158;12.254;2022-12-18T03:26:57;32.47;;;12.00;;
5787;SDS011;2920;48.158;12.254;2022-12-18T03:32:13;31.42;;;10.52;;
5787;SDS011;2920;48.158;12.254;2022-12-18T03:34:41;40.15;;;12.43;;
5787;SDS011;2920;48.158;12.254;2022-12-18T03:37:07;35.83;;;12.68;;
5787;SDS011;2920;48.158;12.254;2022-12-18T03:39:33;30.65;;;11.73;;
5787;SDS011;2920;48.158;12.254;2022-12-18T03:47:37;34.35;;;12.68;;
5787;SDS011;2920;48.158;12.254;2022-12-18T03:50:17;25.58;;;10.25;;
5787;SDS011;2920;48.158;12.254;2022-12-18T03:53:07;34.65;;;12.27;;
5787;SDS011;2920;48.158;12.254;2022-12-18T03:55:36;37.15;;;12.90;;
5787;SDS011;2920;48.158;12.254;2022-12-18T03:58:02;37.03;;;12.38;;
5787;SDS011;2920;48.158;12.254;2022-12-18T04:00:28;37.88;;;13.38;;
5787;SDS011;2920;48.158;12.254;2022-12-18T04:02:55;25.95;;;10.02;;
5787;SDS011;2920;48.158;12.254;2022-12-18T04:05:21;26.58;;;11.68;;
5787;SDS011;2920;48.158;12.254;2022-12-18T04:07:48;31.17;;;11.30;;
5787;SDS011;2920;48.158;12.254;2022-12-18T04:10:14;31.52;;;11.73;;
5787;SDS011;2920;48.158;12.254;2022-12-18T04:12:41;33.83;;;11.52;;
5787;SDS011;2920;48.158;12.254;2022-12-18T04:15:08;34.42;;;12.82;;
5787;SDS011;2920;48.158;12.254;2022-12-18T04:17:34;32.80;;;11.05;;
5787;SDS011;2920;48.158;12.254;2022-12-18T04:19:59;28.35;;;10.40;;
5787;SDS011;2920;48.158;12.254;2022-12-18T04:22:25;25.40;;;10.82;;
5787;SDS011;2920;48.158;12.254;2022-12-18T04:24:51;29.70;;;11.05;;
5787;SDS011;2920;48.158;12.254;2022-12-18T04:27:17;20.92;;;9.40;;
5787;SDS011;2920;48.158;12.254;2022-12-18T04:29:42;25.08;;;10.20;;
5787;SDS011;2920;48.158;12.254;2022-12-18T04:32:08;26.45;;;9.52;;
5787;SDS011;2920;48.158;12.254;2022-12-18T04:34:33;27.02;;;11.13;;
5787;SDS011;2920;48.158;12.254;2022-12-18T04:36:59;28.70;;;9.25;;
5787;SDS011;2920;48.158;12.254;2022-12-18T04:39:24;23.88;;;8.48;;
5787;SDS011;2920;48.158;12.254;2022-12-18T04:41:49;29.92;;;9.80;;
5787;SDS011;2920;48.158;12.254;2022-12-18T04:44:15;24.10;;;10.52;;
5787;SDS011;2920;48.158;12.254;2022-12-18T04:46:40;31.05;;;10.32;;
5787;SDS011;2920;48.158;12.254;2022-12-18T04:49:06;25.48;;;9.82;;
5787;SDS011;2920;48.158;12.254;2022-12-18T04:51:31;27.48;;;11.52;;
5787;SDS011;2920;48.158;12.254;2022-12-18T04:53:56;32.50;;;11.05;;
5787;SDS011;2920;48.158;12.254;2022-12-18T04:56:22;32.50;;;11.45;;
5787;SDS011;2920;48.158;12.254;2022-12-18T04:58:47;36.38;;;11.27;;
5787;SDS011;2920;48.158;12.254;2022-12-18T05:01:13;28.67;;;10.43;;
5787;SDS011;2920;48.158;12.254;2022-12-18T05:03:39;32.95;;;11.30;;
5787;SDS011;2920;48.158;12.254;2022-12-18T05:06:05;28.13;;;9.27;;
5787;SDS011;2920;48.158;12.254;2022-12-18T05:08:31;37.17;;;12.02;;
5787;SDS011;2920;48.158;12.254;2022-12-18T05:11:04;32.50;;;12.02;;
5787;SDS011;2920;48.158;12.254;2022-12-18T05:13:31;33.05;;;11.60;;
5787;SDS011;2920;48.158;12.254;2022-12-18T05:15:57;27.48;;;10.40;;
5787;SDS011;2920;48.158;12.254;2022-12-18T05:18:23;36.63;;;11.63;;
5787;SDS011;2920;48.158;12.254;2022-12-18T05:20:49;31.35;;;10.68;;
5787;SDS011;2920;48.158;12.254;2022-12-18T05:23:15;31.98;;;11.38;;
5787;SDS011;2920;48.158;12.254;2022-12-18T05:25:41;32.50;;;11.35;;
5787;SDS011;2920;48.158;12.254;2022-12-18T05:28:06;33.47;;;12.00;;
5787;SDS011;2920;48.158;12.254;2022-12-18T05:30:31;26.17;;;10.23;;
5787;SDS011;2920;48.158;12.254;2022-12-18T05:32:57;27.10;;;9.43;;
5787;SDS011;2920;48.158;12.254;2022-12-18T05:35:22;33.53;;;11.65;;
5787;SDS011;2920;48.158;12.254;2022-12-18T05:37:47;40.28;;;12.30;;
5787;SDS011;2920;48.158;12.254;2022-12-18T05:40:12;26.92;;;10.43;;
5787;SDS011;2920;48.158;12.254;2022-12-18T05:42:38;31.15;;;11.25;;
5787;SDS011;2920;48.158;12.254;2022-12-18T05:45:04;32.92;;;12.77;;
5787;SDS011;2920;48.158;12.254;2022-12-18T05:47:29;31.60;;;12.05;;
5787;SDS011;2920;48.158;12.254;2022-12-18T05:49:55;36.70;;;12.10;;
5787;SDS011;2920;48.158;12.254;2022-12-18T05:52:20;33.45;;;12.75;;
5787;SDS011;2920;48.158;12.254;2022-12-18T05:54:45;39.42;;;13.00;;
5787;SDS011;2920;48.158;12.254;2022-12-18T05:57:11;33.85;;;12.18;;
5787;SDS011;2920;48.158;12.254;2022-12-18T05:59:36;23.45;;;10.25;;
5787;SDS011;2920;48.158;12.254;2022-12-18T06:02:01;30.33;;;10.73;;
5787;SDS011;2920;48.158;12.254;2022-12-18T06:04:27;30.98;;;10.38;;
5787;SDS011;2920;48.158;12.254;2022-12-18T06:06:53;24.27;;;9.32;;
5787;SDS011;2920;48.158;12.254;2022-12-18T06:09:19;26.95;;;11.13;;
5787;SDS011;2920;48.158;12.254;2022-12-18T06:11:44;28.83;;;10.55;;
5787;SDS011;2920;48.158;12.254;2022-12-18T06:14:09;29.92;;;11.73;;
5787;SDS011;2920;48.158;12.254;2022-12-18T06:16:35;31.17;;;11.35;;
5787;SDS011;2920;48.158;12.254;2022-12-18T06:19:01;29.85;;;11.13;;
5787;SDS011;2920;48.158;12.254;2022-12-18T06:21:28;27.33;;;10.52;;
5787;SDS011;2920;48.158;12.254;2022-12-18T06:23:54;29.50;;;10.00;;
5787;SDS011;2920;48.158;12.254;2022-12-18T06:26:19;28.95;;;11.55;;
5787;SDS011;2920;48.158;12.254;2022-12-18T06:28:45;23.70;;;9.60;;
5787;SDS011;2920;48.158;12.254;2022-12-18T06:31:10;25.80;;;9.35;;
5787;SDS011;2920;48.158;12.254;2022-12-18T06:33:36;29.88;;;10.55;;
5787;SDS011;2920;48.158;12.254;2022-12-18T06:36:03;26.98;;;10.15;;
5787;SDS011;2920;48.158;12.254;2022-12-18T06:38:29;27.45;;;10.23;;
5787;SDS011;2920;48.158;12.254;2022-12-18T06:40:54;20.33;;;8.65;;
5787;SDS011;2920;48.158;12.254;2022-12-18T06:43:19;27.50;;;10.27;;
5787;SDS011;2920;48.158;12.254;2022-12-18T06:45:45;30.00;;;9.98;;
5787;SDS011;2920;48.158;12.254;2022-12-18T06:48:14;28.17;;;8.88;;
5787;SDS011;2920;48.158;12.254;2022-12-18T06:50:41;23.58;;;9.60;;
5787;SDS011;2920;48.158;12.254;2022-12-18T06:53:07;27.10;;;9.27;;
5787;SDS011;2920;48.158;12.254;2022-12-18T06:55:32;27.95;;;10.32;;
5787;SDS011;2920;48.158;12.254;2022-12-18T06:57:57;25.75;;;9.50;;
5787;SDS011;2920;48.158;12.254;2022-12-18T07:00:23;27.67;;;9.38;;
5787;SDS011;2920;48.158;12.254;2022-12-18T07:02:48;23.85;;;8.55;;
5787;SDS011;2920;48.158;12.254;2022-12-18T07:05:13;25.23;;;9.43;;
5787;SDS011;2920;48.158;12.254;2022-12-18T07:07:39;26.77;;;10.02;;
5787;SDS011;2920;48.158;12.254;2022-12-18T07:10:04;25.58;;;9.63;;
5787;SDS011;2920;48.158;12.254;2022-12-18T07:12:30;27.73;;;10.32;;
5787;SDS011;2920;48.158;12.254;2022-12-18T07:14:55;27.73;;;10.38;;
5787;SDS011;2920;48.158;12.254;2022-12-18T07:17:20;33.17;;;10.98;;
5787;SDS011;2920;48.158;12.254;2022-12-18T07:19:46;30.92;;;10.70;;
5787;SDS011;2920;48.158;12.254;2022-12-18T07:22:11;32.20;;;9.63;;
5787;SDS011;2920;48.158;12.254;2022-12-18T07:24:36;31.10;;;10.27;;
5787;SDS011;2920;48.158;12.254;2022-12-18T07:27:02;21.55;;;9.77;;
5787;SDS011;2920;48.158;12.254;2022-12-18T07:29:27;22.55;;;9.52;;
5787;SDS011;2920;48.158;12.254;2022-12-18T07:31:53;25.27;;;9.75;;
5787;SDS011;2920;48.158;12.254;2022-12-18T07:34:18;25.77;;;9.80;;
5787;SDS011;2920;48.158;12.254;2022-12-18T07:36:44;27.17;;;10.75;;
5787;SDS011;2920;48.158;12.254;2022-12-18T07:39:10;33.38;;;9.75;;
5787;SDS011;2920;48.158;12.254;2022-12-18T07:41:36;24.50;;;9.23;;
5787;SDS011;2920;48.158;12.254;2022-12-18T07:44:01;28.25;;;8.70;;
5787;SDS011;2920;48.158;12.254;2022-12-18T07:46:26;29.80;;;10.13;;
5787;SDS011;2920;48.158;12.254;2022-12-18T07:48:52;28.50;;;11.30;;
5787;SDS011;2920;48.158;12.254;2022-12-18T07:51:17;25.55;;;9.02;;
5787;SDS011;2920;48.158;12.254;2022-12-18T07:53:43;22.10;;;9.45;;
5787;SDS011;2920;48.158;12.254;2022-12-18T07:56:09;26.48;;;9.63;;
5787;SDS011;2920;48.158;12.254;2022-12-18T07:58:36;25.00;;;9.77;;
5787;SDS011;2920;48.158;12.254;2022-12-18T08:01:02;26.98;;;11.80;;
5787;SDS011;2920;48.158;12.254;2022-12-18T08:03:34;34.03;;;11.70;;
5787;SDS011;2920;48.158;12.254;2022-12-18T08:06:03;28.17;;;10.32;;
5787;SDS011;2920;48.158;12.254;2022-12-18T08:08:29;23.98;;;9.88;;
5787;SDS011;2920;48.158;12.254;2022-12-18T08:10:55;28.58;;;11.05;;
5787;SDS011;2920;48.158;12.254;2022-12-18T08:13:21;25.60;;;10.70;;
5787;SDS011;2920;48.158;12.254;2022-12-18T08:15:55;27.55;;;12.00;;
5787;SDS011;2920;48.158;12.254;2022-12-18T08:18:24;24.33;;;8.98;;
5787;SDS011;2920;48.158;12.254;2022-12-18T08:20:50;24.70;;;10.10;;
5787;SDS011;2920;48.158;12.254;2022-12-18T08:23:15;29.58;;;10.90;;
5787;SDS011;2920;48.158;12.254;2022-12-18T08:25:41;26.60;;;11.45;;
5787;SDS011;2920;48.158;12.254;2022-12-18T08:28:06;30.42;;;10.45;;
5787;SDS011;2920;48.158;12.254;2022-12-18T08:30:31;34.30;;;12.40;;
5787;SDS011;2920;48.158;12.254;2022-12-18T08:32:56;27.63;;;10.55;;
5787;SDS011;2920;48.158;12.254;2022-12-18T08:35:23;22.13;;;10.02;;
5787;SDS011;2920;48.158;12.254;2022-12-18T08:37:48;27.63;;;10.15;;
5787;SDS011;2920;48.158;12.254;2022-12-18T08:40:13;26.10;;;11.00;;
5787;SDS011;2920;48.158;12.254;2022-12-18T08:42:39;23.60;;;9.77;;
5787;SDS011;2920;48.158;12.254;2022-12-18T08:45:22;27.38;;;9.90;;
5787;SDS011;2920;48.158;12.254;2022-12-18T08:47:49;27.00;;;10.60;;
5787;SDS011;2920;48.158;12.254;2022-12-18T08:50:14;23.90;;;10.80;;
5787;SDS011;2920;48.158;12.254;2022-12-18T08:52:40;25.70;;;11.18;;
5787;SDS011;2920;48.158;12.254;2022-12-18T08:55:05;25.45;;;10.18;;
5787;SDS011;2920;48.158;12.254;2022-12-18T08:57:31;29.95;;;11.20;;
5787;SDS011;2920;48.158;12.254;2022-12-18T08:59:56;27.35;;;10.90;;
5787;SDS011;2920;48.158;12.254;2022-12-18T09:02:22;24.63;;;11.55;;
5787;SDS011;2920;48.158;12.254;2022-12-18T09:04:47;32.50;;;11.95;;
5787;SDS011;2920;48.158;12.254;2022-12-18T09:07:12;26.30;;;11.75;;
5787;SDS011;2920;48.158;12.254;2022-12-18T09:09:38;28.92;;;11.68;;
5787;SDS011;2920;48.158;12.254;2022-12-18T09:12:03;28.15;;;10.85;;
5787;SDS011;2920;48.158;12.254;2022-12-18T09:14:28;30.88;;;12.23;;
5787;SDS011;2920;48.158;12.254;2022-12-18T09:16:54;29.88;;;12.07;;
5787;SDS011;2920;48.158;12.254;2022-12-18T09:19:19;25.98;;;10.80;;
5787;SDS011;2920;48.158;12.254;2022-12-18T09:21:45;24.77;;;11.85;;
5787;SDS011;2920;48.158;12.254;2022-12-18T09:24:11;29.10;;;11.35;;
5787;SDS011;2920;48.158;12.254;2022-12-18T09:26:37;28.25;;;11.30;;
5787;SDS011;2920;48.158;12.254;2022-12-18T09:29:03;31.25;;;10.85;;
5787;SDS011;2920;48.158;12.254;2022-12-18T09:31:28;71.70;;;23.60;;
5787;SDS011;2920;48.158;12.254;2022-12-18T09:33:54;35.30;;;14.13;;
5787;SDS011;2920;48.158;12.254;2022-12-18T09:36:20;40.65;;;13.98;;
5787;SDS011;2920;48.158;12.254;2022-12-18T09:38:46;30.23;;;11.77;;
5787;SDS011;2920;48.158;12.254;2022-12-18T09:43:43;29.40;;;11.55;;
5787;SDS011;2920;48.158;12.254;2022-12-18T09:46:14;25.20;;;11.03;;
5787;SDS011;2920;48.158;12.254;2022-12-18T09:48:43;30.38;;;12.35;;
5787;SDS011;2920;48.158;12.254;2022-12-18T09:51:15;28.65;;;10.52;;
5787;SDS011;2920;48.158;12.254;2022-12-18T09:53:43;28.70;;;10.30;;
5787;SDS011;2920;48.158;12.254;2022-12-18T09:56:12;30.17;;;10.45;;
5787;SDS011;2920;48.158;12.254;2022-12-18T09:58:46;29.33;;;11.40;;
5787;SDS011;2920;48.158;12.254;2022-12-18T10:01:15;32.13;;;12.40;;
5787;SDS011;2920;48.158;12.254;2022-12-18T10:03:44;27.00;;;11.73;;
5787;SDS011;2920;48.158;12.254;2022-12-18T10:06:14;28.75;;;11.10;;
5787;SDS011;2920;48.158;12.254;2022-12-18T10:20:16;25.55;;;10.65;;
5787;SDS011;2920;48.158;12.254;2022-12-18T10:22:53;25.02;;;9.95;;
5787;SDS011;2920;48.158;12.254;2022-12-18T10:25:23;29.38;;;11.32;;
5787;SDS011;2920;48.158;12.254;2022-12-18T10:27:52;23.08;;;10.05;;
5787;SDS011;2920;48.158;12.254;2022-12-18T10:30:21;27.80;;;11.18;;
5787;SDS011;2920;48.158;12.254;2022-12-18T10:32:47;32.00;;;12.57;;
5787;SDS011;2920;48.158;12.254;2022-12-18T10:35:23;27.05;;;11.88;;
5787;SDS011;2920;48.158;12.254;2022-12-18T10:37:59;33.45;;;11.88;;
5787;SDS011;2920;48.158;12.254;2022-12-18T10:40:51;20.92;;;9.45;;
5787;SDS011;2920;48.158;12.254;2022-12-18T10:43:21;24.23;;;11.55;;
5787;SDS011;2920;48.158;12.254;2022-12-18T10:48:30;23.60;;;9.27;;
5787;SDS011;2920;48.158;12.254;2022-12-18T10:50:57;20.35;;;9.93;;
5787;SDS011;2920;48.158;12.254;2022-12-18T10:53:23;23.15;;;11.00;;
5787;SDS011;2920;48.158;12.254;2022-12-18T10:55:50;25.10;;;11.38;;
5787;SDS011;2920;48.158;12.254;2022-12-18T10:58:28;23.52;;;9.77;;
5787;SDS011;2920;48.158;12.254;2022-12-18T11:03:45;27.27;;;10.57;;
5787;SDS011;2920;48.158;12.254;2022-12-18T11:06:19;28.42;;;10.77;;
5787;SDS011;2920;48.158;12.254;2022-12-18T11:11:24;25.50;;;10.15;;
5787;SDS011;2920;48.158;12.254;2022-12-18T11:14:03;23.90;;;9.60;;
5787;SDS011;2920;48.158;12.254;2022-12-18T11:16:34;25.15;;;9.93;;
5787;SDS011;2920;48.158;12.254;2022-12-18T11:21:46;23.30;;;9.82;;
5787;SDS011;2920;48.158;12.254;2022-12-18T11:24:19;28.95;;;11.30;;
5787;SDS011;2920;48.158;12.254;2022-12-18T11:26:46;29.17;;;11.60;;
5787;SDS011;2920;48.158;12.254;2022-12-18T11:29:16;24.77;;;11.02;;
5787;SDS011;2920;48.158;12.254;2022-12-18T11:31:42;25.27;;;11.10;;
5787;SDS011;2920;48.158;12.254;2022-12-18T11:34:16;23.33;;;10.73;;
5787;SDS011;2920;48.158;12.254;2022-12-18T11:36:47;29.08;;;11.15;;
5787;SDS011;2920;48.158;12.254;2022-12-18T11:39:59;28.73;;;10.93;;
5787;SDS011;2920;48.158;12.254;2022-12-18T11:50:23;27.98;;;10.65;;
5787;SDS011;2920;48.158;12.254;2022-12-18T11:53:12;26.33;;;10.82;;
5787;SDS011;2920;48.158;12.254;2022-12-18T11:59:09;29.35;;;11.18;;
5787;SDS011;2920;48.158;12.254;2022-12-18T12:01:40;31.33;;;10.70;;
5787;SDS011;2920;48.158;12.254;2022-12-18T12:15:40;27.55;;;12.48;;
5787;SDS011;2920;48.158;12.254;2022-12-18T12:23:41;24.88;;;11.23;;
5787;SDS011;2920;48.158;12.254;2022-12-18T12:26:10;18.70;;;9.85;;
5787;SDS011;2920;48.158;12.254;2022-12-18T12:31:42;24.50;;;11.10;;
5787;SDS011;2920;48.158;12.254;2022-12-18T12:34:21;28.40;;;11.73;;
5787;SDS011;2920;48.158;12.254;2022-12-18T12:37:01;23.52;;;10.25;;
5787;SDS011;2920;48.158;12.254;2022-12-18T12:39:36;31.42;;;11.30;;
5787;SDS011;2920;48.158;12.254;2022-12-18T12:42:04;25.85;;;9.82;;
5787;SDS011;2920;48.158;12.254;2022-12-18T12:44:55;25.45;;;10.50;;
5787;SDS011;2920;48.158;12.254;2022-12-18T12:54:42;23.75;;;10.82;;
5787;SDS011;2920;48.158;12.254;2022-12-18T13:00:07;25.10;;;11.57;;
5787;SDS011;2920;48.158;12.254;2022-12-18T13:02:38;23.38;;;10.05;;
5787;SDS011;2920;48.158;12.254;2022-12-18T13:07:51;32.50;;;11.60;;
5787;SDS011;2920;48.158;12.254;2022-12-18T13:12:51;24.60;;;10.82;;
5787;SDS011;2920;48.158;12.254;2022-12-18T13:25:48;31.75;;;11.30;;
5787;SDS011;2920;48.158;12.254;2022-12-18T13:28:15;28.45;;;11.07;;
5787;SDS011;2920;48.158;12.254;2022-12-18T13:35:39;24.17;;;10.45;;
5787;SDS011;2920;48.158;12.254;2022-12-18T13:41:03;31.85;;;12.07;;
5787;SDS011;2920;48.158;12.254;2022-12-18T13:43:38;30.52;;;11.93;;
5787;SDS011;2920;48.158;12.254;2022-12-18T13:46:06;28.27;;;11.57;;
5787;SDS011;2920;48.158;12.254;2022-12-18T13:48:41;30.23;;;13.55;;
5787;SDS011;2920;48.158;12.254;2022-12-18T13:51:16;33.20;;;11.57;;
5787;SDS011;2920;48.158;12.254;2022-12-18T13:53:44;25.20;;;11.02;;
5787;SDS011;2920;48.158;12.254;2022-12-18T13:56:21;25.80;;;10.98;;
5787;SDS011;2920;48.158;12.254;2022-12-18T13:59:35;29.17;;;11.68;;
5787;SDS011;2920;48.158;12.254;2022-12-18T14:01:42;29.90;;;11.55;;
5787;SDS011;2920;48.158;12.254;2022-12-18T14:04:17;26.38;;;11.38;;
5787;SDS011;2920;48.158;12.254;2022-12-18T14:07:04;28.40;;;11.68;;
5787;SDS011;2920;48.158;12.254;2022-12-18T14:09:37;31.08;;;11.48;;
5787;SDS011;2920;48.158;12.254;2022-12-18T14:12:05;28.05;;;11.32;;
5787;SDS011;2920;48.158;12.254;2022-12-18T14:14:50;30.73;;;12.63;;
5787;SDS011;2920;48.158;12.254;2022-12-18T14:17:17;31.50;;;12.63;;
5787;SDS011;2920;48.158;12.254;2022-12-18T14:19:43;32.55;;;12.52;;
5787;SDS011;2920;48.158;12.254;2022-12-18T14:22:13;31.33;;;12.77;;
5787;SDS011;2920;48.158;12.254;2022-12-18T14:24:40;31.50;;;12.73;;
5787;SDS011;2920;48.158;12.254;2022-12-18T14:27:41;26.92;;;11.60;;
5787;SDS011;2920;48.158;12.254;2022-12-18T14:29:56;26.27;;;12.93;;
5787;SDS011;2920;48.158;12.254;2022-12-18T14:32:23;26.92;;;12.68;;
5787;SDS011;2920;48.158;12.254;2022-12-18T14:37:15;26.08;;;10.45;;
5787;SDS011;2920;48.158;12.254;2022-12-18T14:39:51;28.52;;;12.43;;
5787;SDS011;2920;48.158;12.254;2022-12-18T14:42:21;26.50;;;11.70;;
5787;SDS011;2920;48.158;12.254;2022-12-18T14:44:47;31.90;;;12.73;;
5787;SDS011;2920;48.158;12.254;2022-12-18T14:47:13;31.08;;;12.50;;
5787;SDS011;2920;48.158;12.254;2022-12-18T14:49:40;33.40;;;12.98;;
5787;SDS011;2920;48.158;12.254;2022-12-18T14:52:26;31.42;;;13.48;;
5787;SDS011;2920;48.158;12.254;2022-12-18T14:54:52;22.98;;;10.05;;
5787;SDS011;2920;48.158;12.254;2022-12-18T14:57:22;27.95;;;11.02;;
5787;SDS011;2920;48.158;12.254;2022-12-18T14:59:50;30.58;;;11.98;;
5787;SDS011;2920;48.158;12.254;2022-12-18T15:04:47;25.58;;;11.45;;
5787;SDS011;2920;48.158;12.254;2022-12-18T15:07:20;31.10;;;11.90;;
5787;SDS011;2920;48.158;12.254;2022-12-18T15:10:04;27.92;;;12.15;;
5787;SDS011;2920;48.158;12.254;2022-12-18T15:13:23;38.80;;;17.70;;
5787;SDS011;2920;48.158;12.254;2022-12-18T15:18:00;36.72;;;15.27;;
5787;SDS011;2920;48.158;12.254;2022-12-18T15:20:27;30.63;;;13.27;;
5787;SDS011;2920;48.158;12.254;2022-12-18T15:22:53;26.40;;;12.07;;
5787;SDS011;2920;48.158;12.254;2022-12-18T15:27:57;32.50;;;11.57;;
5787;SDS011;2920;48.158;12.254;2022-12-18T15:30:23;30.88;;;12.27;;
5787;SDS011;2920;48.158;12.254;2022-12-18T15:32:50;27.30;;;12.45;;
5787;SDS011;2920;48.158;12.254;2022-12-18T15:35:17;30.05;;;11.75;;
5787;SDS011;2920;48.158;12.254;2022-12-18T15:37:47;29.52;;;12.07;;
5787;SDS011;2920;48.158;12.254;2022-12-18T15:40:14;21.83;;;10.23;;
5787;SDS011;2920;48.158;12.254;2022-12-18T15:42:40;31.58;;;12.57;;
5787;SDS011;2920;48.158;12.254;2022-12-18T15:45:24;25.45;;;11.23;;
5787;SDS011;2920;48.158;12.254;2022-12-18T15:47:49;36.70;;;12.48;;
5787;SDS011;2920;48.158;12.254;2022-12-18T15:50:14;26.50;;;11.05;;
5787;SDS011;2920;48.158;12.254;2022-12-18T15:52:41;34.10;;;12.25;;
5787;SDS011;2920;48.158;12.254;2022-12-18T15:55:15;28.25;;;10.98;;
5787;SDS011;2920;48.158;12.254;2022-12-18T15:58:00;27.58;;;11.68;;
5787;SDS011;2920;48.158;12.254;2022-12-18T16:00:26;26.27;;;9.95;;
5787;SDS011;2920;48.158;12.254;2022-12-18T16:02:51;20.80;;;8.55;;
5787;SDS011;2920;48.158;12.254;2022-12-18T16:05:18;19.73;;;8.88;;
5787;SDS011;2920;48.158;12.254;2022-12-18T16:07:45;27.85;;;9.35;;
5787;SDS011;2920;48.158;12.254;2022-12-18T16:10:11;21.85;;;9.25;;
5787;SDS011;2920;48.158;12.254;2022-12-18T16:12:36;15.40;;;6.47;;
5787;SDS011;2920;48.158;12.254;2022-12-18T16:15:02;26.75;;;10.27;;
5787;SDS011;2920;48.158;12.254;2022-12-18T16:17:29;24.27;;;9.32;;
5787;SDS011;2920;48.158;12.254;2022-12-18T16:19:54;16.13;;;7.65;;
5787;SDS011;2920;48.158;12.254;2022-12-18T16:24:46;16.17;;;7.45;;
5787;SDS011;2920;48.158;12.254;2022-12-18T16:27:11;28.50;;;8.88;;
5787;SDS011;2920;48.158;12.254;2022-12-18T16:29:37;21.08;;;7.47;;
5787;SDS011;2920;48.158;12.254;2022-12-18T16:32:02;16.65;;;6.75;;
5787;SDS011;2920;48.158;12.254;2022-12-18T16:34:28;17.70;;;7.80;;
5787;SDS011;2920;48.158;12.254;2022-12-18T16:37:05;22.13;;;9.15;;
5787;SDS011;2920;48.158;12.254;2022-12-18T16:39:32;13.77;;;6.15;;
5787;SDS011;2920;48.158;12.254;2022-12-18T16:41:59;11.10;;;4.97;;
5787;SDS011;2920;48.158;12.254;2022-12-18T16:44:24;13.30;;;6.03;;
5787;SDS011;2920;48.158;12.254;2022-12-18T16:46:49;23.33;;;7.97;;
5787;SDS011;2920;48.158;12.254;2022-12-18T16:49:15;21.52;;;7.38;;
5787;SDS011;2920;48.158;12.254;2022-12-18T16:51:42;22.77;;;9.85;;
5787;SDS011;2920;48.158;12.254;2022-12-18T16:54:07;19.13;;;6.80;;
5787;SDS011;2920;48.158;12.254;2022-12-18T16:56:33;18.40;;;6.72;;
5787;SDS011;2920;48.158;12.254;2022-12-18T16:58:59;15.00;;;6.40;;
5787;SDS011;2920;48.158;12.254;2022-12-18T17:01:26;17.58;;;6.65;;
5787;SDS011;2920;48.158;12.254;2022-12-18T17:03:54;25.38;;;10.32;;